Daytona Beach, FL

12:26 PM EDT on September 17, 2014 (GMT -0400)
ERAU Daytona Beach | Change Station
CLOSE
Current Station
Personal Weather Station
Location: Daytona Beach, FL
Elevation: 26 ft
Nearby Weather Stations
Active Advisory: Coastal Hazard Statement

Elev 26 ft 29.18 °N, 81.05 °W | Updated 3 seconds ago

Mostly Cloudy
Mostly Cloudy
82.0 °F
Feels Like 88 °F
N
6.0
Wind Variable Wind from North
Gusts 13.0 mph

Today
High -- | Low -- °F
--% Chance of Precip.
Yesterday
High -- | Low -- °F
Precip. -- in
7:10 AM 7:26 PM
Waning Crescent, 35% visible
Pressure 29.95 in
Visibility 10.0 miles
Clouds Few 2000 ft
Mostly Cloudy 6000 ft
Mostly Cloudy 8000 ft
Heat Index 88 °F
Dew Point 74 °F
Humidity 77%
Rainfall 0.00 in
Snow Depth Not available.
UV 5.5 out of 12
Pollen 4.30 out of 12
Air Quality Not available.
Flu Activity Not available.
METAR KDAB 171553Z 25007KT 10SM FEW020 BKN060 BKN080 27/23 A2995 RMK AO2 SLP141 CB DSNT E T02670228

More Conditions Fewer Conditions

Pressure 29.95 in
Visibility 10.0 miles
Clouds Few 2000 ft
Mostly Cloudy 6000 ft
Mostly Cloudy 8000 ft
Heat Index 88 °F
Dew Point 74 °F
Humidity 77%
Rainfall 0.00 in
Snow Depth Not available.
UV 5.5 out of 12
Pollen 4.30 out of 12
Air Quality Not available.
Flu Activity Not available.
METAR KDAB 171553Z 25007KT 10SM FEW020 BKN060 BKN080 27/23 A2995 RMK AO2 SLP141 CB DSNT E T02670228

More Conditions Fewer Conditions

10-Day Weather Forecast

Almanac

Astronomy

Sep. 17, 2014 Rise Set
Actual Time 7:10 AM EDT 7:26 PM EDT
Civil Twilight 6:46 AM EDT 7:50 PM EDT
Nautical Twilight 6:18 AM EDT 8:18 PM EDT
Astronomical Twilight 5:50 AM EDT 8:46 PM EDT
Moon 1:28 AM EDT 3:16 PM EDT
Length of Visible Light 13h 04m
Length of Day
12h 16m
Tomorrow will be 1m 45s shorter.
Waning Crescent, 35% of the Moon is Illuminated
Today
Waning Crescent
Sep 24
New
Oct 1
First Quarter
Oct 8
Full
Oct 15
Last Quarter

Today's Extremes

State Highs State Lows

Community

WunderPhotos

Upload Photos

1,754,100 photos uploaded!

Nearby

Snow Depth

Station Depth Elevation
No new snow has been reported.

Earthquake Activity

City Distance Mag. Time & Date
No recent earthquake activity has been reported nearby.
Minimum magnitude displayed is 2.5.

Coastal Water Temperatures

Place Temperature
Trident Pier, FL 84.9 °F
Mayport (Bar Pilots Dock), FL 84.0 °F
Fernandina Beach, FL 82.9 °F

Nearby Weather Stations